createdAt,value
2023-05-25T00:01:02.986Z,10.20
2023-05-25T00:01:59.681Z,10.20
2023-05-25T00:02:59.751Z,10.30
2023-05-25T00:03:59.783Z,10.10
2023-05-25T00:04:59.610Z,9.80
2023-05-25T00:05:59.635Z,10.40
2023-05-25T00:06:59.594Z,10.50
2023-05-25T00:07:59.562Z,10.50
2023-05-25T00:08:59.583Z,10.90
2023-05-25T00:09:59.530Z,11.20
2023-05-25T00:10:59.550Z,11.20
2023-05-25T00:11:59.521Z,10.70
2023-05-25T00:12:59.514Z,10.50
2023-05-25T00:13:59.505Z,11.20
2023-05-25T00:14:59.463Z,10.90
2023-05-25T00:15:59.464Z,10.90
2023-05-25T00:16:59.470Z,10.40
2023-05-25T00:17:59.565Z,10.90
2023-05-25T00:18:59.441Z,10.70
2023-05-25T00:19:59.425Z,10.90
2023-05-25T00:20:59.388Z,11.20
2023-05-25T00:21:59.376Z,10.90
2023-05-25T00:22:59.380Z,10.80
2023-05-25T00:23:59.373Z,11.00
2023-05-25T00:24:59.330Z,11.40
2023-05-25T00:25:59.333Z,11.30
2023-05-25T00:26:59.337Z,11.40
2023-05-25T00:27:59.306Z,11.60
2023-05-25T00:28:59.294Z,11.10
2023-05-25T00:29:59.267Z,10.50
2023-05-25T00:30:59.279Z,11.10
2023-05-25T00:31:59.262Z,11.70
2023-05-25T00:32:59.254Z,10.80
2023-05-25T00:33:59.212Z,10.50
2023-05-25T00:34:59.209Z,10.60
2023-05-25T00:35:59.195Z,10.40
2023-05-25T00:36:59.226Z,11.10
2023-05-25T00:37:59.196Z,10.60
2023-05-25T00:38:59.151Z,11.10
2023-05-25T00:39:59.140Z,11.40
2023-05-25T00:40:59.150Z,11.60
2023-05-25T00:41:59.133Z,11.90
2023-05-25T00:42:59.092Z,11.10
2023-05-25T00:43:59.090Z,12.20
2023-05-25T00:44:59.073Z,11.50
2023-05-25T00:45:59.095Z,11.50
2023-05-25T00:46:59.081Z,11.40
2023-05-25T00:47:59.066Z,11.80
2023-05-25T00:48:59.038Z,12.10
2023-05-25T00:49:59.011Z,11.80
2023-05-25T00:50:58.993Z,11.90
2023-05-25T00:51:58.974Z,11.80
2023-05-25T00:52:58.958Z,11.70
2023-05-25T00:53:58.942Z,12.20
2023-05-25T00:54:58.944Z,11.00
2023-05-25T00:55:58.989Z,11.50
2023-05-25T00:56:58.906Z,11.40
2023-05-25T00:57:58.889Z,11.20
2023-05-25T00:58:58.899Z,11.10
2023-05-25T00:59:58.906Z,12.00
2023-05-25T01:00:58.888Z,11.80
2023-05-25T01:01:58.897Z,11.90
2023-05-25T01:02:58.904Z,11.50
2023-05-25T01:03:58.848Z,12.10
2023-05-25T01:04:58.815Z,12.20
2023-05-25T01:05:58.795Z,12.30
2023-05-25T01:06:58.777Z,11.80
2023-05-25T01:07:58.761Z,11.90
2023-05-25T01:08:58.744Z,12.40
2023-05-25T01:09:58.760Z,12.00
2023-05-25T01:10:58.714Z,12.80
2023-05-25T01:11:58.744Z,11.80
2023-05-25T01:12:58.681Z,12.00
2023-05-25T01:13:58.700Z,12.20
2023-05-25T01:14:58.700Z,11.50
2023-05-25T01:15:58.682Z,12.10
2023-05-25T01:16:58.663Z,12.30
2023-05-25T01:17:58.676Z,11.40
2023-05-25T01:18:58.622Z,12.00
2023-05-25T01:20:09.466Z,12.70
2023-05-25T01:20:59.663Z,11.70
2023-05-25T01:21:58.566Z,12.90
2023-05-25T01:22:58.560Z,12.80
2023-05-25T01:23:58.576Z,13.30
2023-05-25T01:24:58.534Z,12.90
2023-05-25T01:25:58.554Z,12.50
2023-05-25T01:26:58.494Z,12.40
2023-05-25T01:27:58.483Z,11.50
2023-05-25T01:28:58.499Z,11.90
2023-05-25T01:29:58.492Z,12.10
2023-05-25T01:30:58.499Z,11.40
2023-05-25T01:31:58.546Z,11.80
2023-05-25T01:32:58.520Z,12.20
2023-05-25T01:33:58.479Z,12.40
2023-05-25T01:34:58.479Z,12.80
2023-05-25T01:35:58.421Z,12.10
2023-05-25T01:36:58.377Z,12.00
2023-05-25T01:37:58.494Z,12.30
2023-05-25T01:38:58.353Z,12.50
2023-05-25T01:39:58.333Z,12.60
2023-05-25T01:40:58.318Z,12.30
2023-05-25T01:41:58.297Z,12.90
2023-05-25T01:42:58.292Z,12.50
2023-05-25T01:43:58.280Z,12.80
2023-05-25T01:44:58.255Z,12.80
2023-05-25T01:45:58.302Z,12.10
2023-05-25T01:46:58.226Z,11.90
2023-05-25T01:47:58.317Z,12.10
2023-05-25T01:48:58.206Z,12.80
2023-05-25T01:49:58.248Z,11.70
2023-05-25T01:50:58.187Z,11.50
2023-05-25T01:51:58.220Z,11.50
2023-05-25T01:52:58.146Z,12.10
2023-05-25T01:53:58.151Z,12.10
2023-05-25T01:54:58.130Z,12.30
2023-05-25T01:55:58.144Z,12.00
2023-05-25T01:56:58.105Z,12.00
2023-05-25T01:57:58.078Z,12.70
2023-05-25T01:58:58.064Z,11.70
2023-05-25T01:59:58.070Z,11.40
2023-05-25T02:00:58.089Z,11.50
2023-05-25T02:01:58.289Z,10.90
2023-05-25T02:02:58.053Z,11.40
2023-05-25T02:03:58.019Z,12.10
2023-05-25T02:04:57.996Z,11.90
2023-05-25T02:05:57.988Z,12.20
2023-05-25T02:06:57.960Z,12.20
2023-05-25T02:07:57.951Z,11.70
2023-05-25T02:08:57.934Z,12.10
2023-05-25T02:09:57.923Z,11.50
2023-05-25T02:10:57.930Z,12.20
2023-05-25T02:11:57.895Z,12.40
2023-05-25T02:12:57.878Z,11.70
2023-05-25T02:13:57.865Z,12.40
2023-05-25T02:14:57.879Z,11.90
2023-05-25T02:15:57.929Z,12.90
2023-05-25T02:16:57.810Z,12.30
2023-05-25T02:17:57.893Z,12.20
2023-05-25T02:18:57.791Z,11.30
2023-05-25T02:19:57.852Z,12.70
2023-05-25T02:20:57.787Z,12.60
2023-05-25T02:21:57.775Z,12.40
2023-05-25T02:22:57.928Z,12.60
2023-05-25T02:23:57.732Z,12.40
2023-05-25T02:24:57.735Z,12.50
2023-05-25T02:25:57.777Z,12.50
2023-05-25T02:26:57.687Z,13.10
2023-05-25T02:27:57.684Z,12.60
2023-05-25T02:28:57.670Z,12.90
2023-05-25T02:29:57.691Z,12.20
2023-05-25T02:30:57.713Z,11.90
2023-05-25T02:31:57.636Z,11.70
2023-05-25T02:32:57.630Z,12.40
2023-05-25T02:33:57.604Z,12.60
2023-05-25T02:34:57.590Z,13.60
2023-05-25T02:35:57.577Z,12.90
2023-05-25T02:36:57.597Z,12.90
2023-05-25T02:37:57.553Z,13.20
2023-05-25T02:38:57.571Z,13.60
2023-05-25T02:39:57.566Z,13.10
2023-05-25T02:40:57.491Z,13.80
2023-05-25T02:41:57.525Z,13.50
2023-05-25T02:42:57.460Z,13.80
2023-05-25T02:43:57.503Z,13.80
2023-05-25T02:44:57.451Z,14.30
2023-05-25T02:45:57.443Z,14.50
2023-05-25T02:46:57.517Z,15.00
2023-05-25T02:47:57.444Z,14.20
2023-05-25T02:48:57.420Z,14.30
2023-05-25T02:49:57.404Z,14.90
2023-05-25T02:50:57.376Z,14.90
2023-05-25T02:51:57.376Z,15.20
2023-05-25T02:52:57.361Z,14.40
2023-05-25T02:53:57.346Z,15.40
2023-05-25T02:54:57.324Z,14.70
2023-05-25T02:55:57.314Z,15.80
2023-05-25T02:56:57.309Z,15.90
2023-05-25T02:57:57.320Z,15.70
2023-05-25T02:58:57.259Z,15.80
2023-05-25T02:59:57.282Z,15.90
2023-05-25T03:00:57.245Z,15.50
2023-05-25T03:01:57.293Z,15.80
2023-05-25T03:02:57.268Z,16.50
2023-05-25T03:03:57.242Z,15.60
2023-05-25T03:04:57.195Z,15.80
2023-05-25T03:05:57.223Z,16.50
2023-05-25T03:06:57.153Z,16.80
2023-05-25T03:07:57.184Z,16.10
2023-05-25T03:08:57.130Z,16.70
2023-05-25T03:09:57.129Z,17.10
2023-05-25T03:10:57.096Z,16.70
2023-05-25T03:11:57.099Z,16.50
2023-05-25T03:12:57.064Z,16.40
2023-05-25T03:13:57.055Z,17.80
2023-05-25T03:14:57.044Z,16.60
2023-05-25T03:15:57.061Z,16.70
2023-05-25T03:16:57.148Z,16.50
2023-05-25T03:17:57.045Z,16.90
2023-05-25T03:18:57.001Z,16.10
2023-05-25T03:19:56.984Z,16.70
2023-05-25T03:20:56.963Z,17.10
2023-05-25T03:21:56.965Z,17.10
2023-05-25T03:22:56.932Z,16.60
2023-05-25T03:23:56.920Z,17.00
2023-05-25T03:24:56.908Z,17.00
2023-05-25T03:25:56.931Z,17.00
2023-05-25T03:26:56.871Z,17.20
2023-05-25T03:27:56.876Z,17.20
2023-05-25T03:28:56.863Z,17.70
2023-05-25T03:29:56.835Z,17.30
2023-05-25T03:30:56.828Z,17.30
2023-05-25T03:31:56.854Z,17.70
2023-05-25T03:32:56.819Z,17.80
2023-05-25T03:33:56.815Z,17.90
2023-05-25T03:34:56.809Z,17.50
2023-05-25T03:35:56.766Z,17.90
2023-05-25T03:36:56.752Z,18.90
2023-05-25T03:37:56.758Z,17.80
2023-05-25T03:38:56.720Z,23.80
2023-05-25T03:39:56.756Z,19.10
2023-05-25T03:40:56.686Z,18.10
2023-05-25T03:41:56.718Z,18.70
2023-05-25T03:42:56.648Z,17.90
2023-05-25T03:43:56.646Z,17.80
2023-05-25T03:44:56.639Z,17.90
2023-05-25T03:45:56.616Z,18.10
2023-05-25T03:46:56.600Z,18.00
2023-05-25T03:47:56.639Z,17.30
2023-05-25T03:48:56.605Z,18.00
2023-05-25T03:49:56.579Z,18.30
2023-05-25T03:50:56.556Z,18.00
2023-05-25T03:51:56.563Z,18.30
2023-05-25T03:52:56.525Z,18.00
2023-05-25T03:53:56.519Z,17.90
2023-05-25T03:54:56.492Z,18.20
2023-05-25T03:55:56.493Z,18.00
2023-05-25T03:56:56.484Z,18.50
2023-05-25T03:57:56.448Z,18.30
2023-05-25T03:58:56.459Z,19.00
2023-05-25T03:59:56.426Z,18.70
2023-05-25T04:00:56.422Z,18.60
2023-05-25T04:01:56.403Z,46.50
2023-05-25T04:02:56.593Z,45.80
2023-05-25T04:03:56.561Z,44.90
2023-05-25T04:04:56.558Z,27.00
2023-05-25T04:05:56.348Z,23.50
2023-05-25T04:06:56.326Z,19.20
2023-05-25T04:07:56.337Z,18.20
2023-05-25T04:08:56.316Z,18.30
2023-05-25T04:09:56.281Z,18.00
2023-05-25T04:10:56.292Z,18.00
2023-05-25T04:11:56.270Z,18.00
2023-05-25T04:12:56.316Z,16.60
2023-05-25T04:13:56.251Z,18.00
2023-05-25T04:14:56.225Z,17.30
2023-05-25T04:15:56.220Z,16.70
2023-05-25T04:16:56.219Z,17.70
2023-05-25T04:17:56.294Z,18.10
2023-05-25T04:18:56.181Z,17.80
2023-05-25T04:19:56.180Z,17.70
2023-05-25T04:20:56.143Z,17.40
2023-05-25T04:21:56.175Z,18.30
2023-05-25T04:22:56.131Z,16.60
2023-05-25T04:23:56.151Z,16.70
2023-05-25T04:24:56.108Z,17.60
2023-05-25T04:25:56.106Z,16.80
2023-05-25T04:26:56.117Z,17.20
2023-05-25T04:27:56.042Z,17.20
2023-05-25T04:28:56.052Z,17.40
2023-05-25T04:29:56.060Z,18.00
2023-05-25T04:30:56.057Z,16.30
2023-05-25T04:31:56.124Z,17.00
2023-05-25T04:32:55.982Z,16.50
2023-05-25T04:33:55.964Z,16.50
2023-05-25T04:34:55.961Z,16.10
2023-05-25T04:35:56.113Z,16.80
2023-05-25T04:36:55.966Z,16.70
2023-05-25T04:37:55.911Z,16.30
2023-05-25T04:38:55.916Z,16.60
2023-05-25T04:39:55.871Z,16.50
2023-05-25T04:40:55.893Z,16.30
2023-05-25T04:41:55.864Z,16.30
2023-05-25T04:42:55.892Z,16.90
2023-05-25T04:44:07.827Z,17.00
2023-05-25T04:44:56.848Z,16.70
2023-05-25T04:45:55.866Z,16.40
2023-05-25T04:46:55.795Z,15.90
2023-05-25T04:47:55.829Z,16.70
2023-05-25T04:48:55.802Z,15.90
2023-05-25T04:49:55.781Z,15.80
2023-05-25T04:50:55.743Z,16.30
2023-05-25T04:51:55.725Z,16.70
2023-05-25T04:52:55.707Z,21.10
2023-05-25T04:53:55.703Z,19.00
2023-05-25T04:54:55.698Z,17.80
2023-05-25T04:55:55.666Z,17.10
2023-05-25T04:56:55.645Z,15.40
2023-05-25T04:57:55.649Z,15.40
2023-05-25T04:58:55.660Z,16.70
2023-05-25T04:59:55.629Z,16.10
2023-05-25T05:00:55.670Z,15.50
2023-05-25T05:01:55.585Z,16.30
2023-05-25T05:02:55.631Z,15.50
2023-05-25T05:03:55.638Z,16.10
2023-05-25T05:04:55.555Z,39.50
2023-05-25T05:05:55.557Z,58.10
2023-05-25T05:06:56.756Z,26.80
2023-05-25T05:07:55.507Z,17.30
2023-05-25T05:08:55.508Z,16.10
2023-05-25T05:09:55.472Z,15.60
2023-05-25T05:10:55.481Z,15.50
2023-05-25T05:11:55.455Z,15.80
2023-05-25T05:12:55.492Z,15.80
2023-05-25T05:13:55.425Z,15.50
2023-05-25T05:14:55.408Z,15.60
2023-05-25T05:15:55.411Z,15.40
2023-05-25T05:16:55.490Z,15.10
2023-05-25T05:17:55.493Z,15.40
2023-05-25T05:18:55.357Z,14.70
2023-05-25T05:19:55.396Z,16.70
2023-05-25T05:20:55.340Z,15.10
2023-05-25T05:21:55.308Z,15.40
2023-05-25T05:22:55.325Z,15.30
2023-05-25T05:23:55.296Z,15.10
2023-05-25T05:24:55.283Z,15.70
2023-05-25T05:25:55.258Z,15.10
2023-05-25T05:26:58.089Z,14.60
2023-05-25T05:27:55.250Z,15.30
2023-05-25T05:28:55.260Z,15.70
2023-05-25T05:29:55.245Z,14.90
2023-05-25T05:30:55.210Z,14.90
2023-05-25T05:31:55.286Z,15.70
2023-05-25T05:32:55.203Z,14.90
2023-05-25T05:33:55.185Z,14.40
2023-05-25T05:34:55.137Z,15.20
2023-05-25T05:35:55.140Z,14.80
2023-05-25T05:36:58.584Z,14.30
2023-05-25T05:37:55.102Z,14.70
2023-05-25T05:38:55.087Z,14.30
2023-05-25T05:39:55.067Z,13.80
2023-05-25T05:40:55.143Z,13.70
2023-05-25T05:41:55.069Z,14.20
2023-05-25T05:42:55.052Z,13.90
2023-05-25T05:43:55.019Z,15.10
2023-05-25T05:44:55.023Z,14.30
2023-05-25T05:45:55.144Z,14.10
2023-05-25T05:46:55.034Z,13.30
2023-05-25T05:47:55.007Z,13.70
2023-05-25T05:48:54.973Z,13.20
2023-05-25T05:49:54.955Z,13.40
2023-05-25T05:50:54.945Z,13.10
2023-05-25T05:51:54.907Z,13.50
2023-05-25T05:52:54.923Z,13.70
2023-05-25T05:53:54.876Z,13.30
2023-05-25T05:54:54.878Z,13.80
2023-05-25T05:55:56.363Z,13.30
2023-05-25T05:56:54.868Z,13.80
2023-05-25T05:57:54.835Z,13.40
2023-05-25T05:58:54.826Z,13.40
2023-05-25T05:59:54.845Z,13.30
2023-05-25T06:00:54.797Z,13.10
2023-05-25T06:01:54.805Z,13.40
2023-05-25T06:02:54.874Z,13.70
2023-05-25T06:03:54.767Z,13.50
2023-05-25T06:04:54.761Z,13.00
2023-05-25T06:05:54.797Z,12.70
2023-05-25T06:06:54.720Z,14.00
2023-05-25T06:07:54.692Z,12.90
2023-05-25T06:08:54.704Z,13.30
2023-05-25T06:09:54.660Z,13.50
2023-05-25T06:10:54.661Z,13.40
2023-05-25T06:11:54.658Z,13.20
2023-05-25T06:12:54.642Z,13.80
2023-05-25T06:13:54.629Z,13.40
2023-05-25T06:14:54.609Z,13.50
2023-05-25T06:15:54.606Z,12.90
2023-05-25T06:16:54.612Z,12.90
2023-05-25T06:17:54.629Z,14.00
2023-05-25T06:18:54.574Z,13.40
2023-05-25T06:19:54.606Z,12.80
2023-05-25T06:20:54.520Z,12.80
2023-05-25T06:21:54.495Z,12.60
2023-05-25T06:22:54.512Z,13.40
2023-05-25T06:23:54.510Z,13.30
2023-05-25T06:24:54.471Z,13.20
2023-05-25T06:25:54.443Z,12.90
2023-05-25T06:26:54.430Z,13.00
2023-05-25T06:27:54.434Z,12.60
2023-05-25T06:28:54.431Z,12.90
2023-05-25T06:29:54.399Z,12.80
2023-05-25T06:30:54.388Z,12.10
2023-05-25T06:31:54.420Z,12.30
2023-05-25T06:32:54.403Z,11.30
2023-05-25T06:33:54.339Z,11.70
2023-05-25T06:34:55.547Z,12.10
2023-05-25T06:35:54.307Z,11.30
2023-05-25T06:36:54.311Z,11.20
2023-05-25T06:37:54.273Z,11.90
2023-05-25T06:38:54.269Z,11.00
2023-05-25T06:39:56.895Z,10.60
2023-05-25T06:40:54.259Z,11.20
2023-05-25T06:41:55.250Z,10.60
2023-05-25T06:42:54.245Z,10.70
2023-05-25T06:43:54.204Z,11.00
2023-05-25T06:44:54.187Z,10.90
2023-05-25T06:45:54.255Z,11.00
2023-05-25T06:46:54.192Z,10.80
2023-05-25T06:47:54.195Z,10.70
2023-05-25T06:48:54.135Z,11.10
2023-05-25T06:49:54.136Z,10.90
2023-05-25T06:50:54.109Z,10.10
2023-05-25T06:51:54.106Z,10.50
2023-05-25T06:52:54.078Z,9.90
2023-05-25T06:53:54.072Z,10.10
2023-05-25T06:54:54.071Z,9.90
2023-05-25T06:55:54.026Z,10.00
2023-05-25T06:56:54.027Z,9.70
2023-05-25T06:57:54.015Z,9.50
2023-05-25T06:58:54.037Z,9.70
2023-05-25T06:59:54.012Z,9.50
2023-05-25T07:00:53.975Z,9.70
2023-05-25T07:01:54.031Z,10.00
2023-05-25T07:02:54.077Z,10.40
2023-05-25T07:03:53.978Z,9.90
2023-05-25T07:04:53.950Z,9.80
2023-05-25T07:05:53.920Z,10.00
2023-05-25T07:06:53.902Z,10.70
2023-05-25T07:07:53.878Z,10.10
2023-05-25T07:08:53.865Z,10.20
2023-05-25T07:09:53.888Z,10.20
2023-05-25T07:10:53.887Z,9.50
2023-05-25T07:11:53.854Z,10.30
2023-05-25T07:12:53.810Z,9.90
2023-05-25T07:13:53.804Z,10.00
2023-05-25T07:14:53.785Z,9.50
2023-05-25T07:15:53.772Z,10.30
2023-05-25T07:16:53.761Z,9.70
2023-05-25T07:17:53.786Z,10.10
2023-05-25T07:18:53.738Z,9.80
2023-05-25T07:19:53.777Z,10.10
2023-05-25T07:20:53.696Z,10.40
2023-05-25T07:21:53.687Z,10.60
2023-05-25T07:22:53.717Z,9.70
2023-05-25T07:23:53.666Z,9.50
2023-05-25T07:24:53.655Z,10.40
2023-05-25T07:25:53.625Z,10.30
2023-05-25T07:26:53.624Z,10.20
2023-05-25T07:27:53.619Z,10.10
2023-05-25T07:28:53.612Z,10.20
2023-05-25T07:29:53.570Z,10.50
2023-05-25T07:30:53.578Z,9.60
2023-05-25T07:31:53.671Z,10.00
2023-05-25T07:32:53.613Z,10.30
2023-05-25T07:33:53.551Z,10.30
2023-05-25T07:34:53.511Z,10.20
2023-05-25T07:35:53.499Z,10.40
2023-05-25T07:36:53.501Z,10.40
2023-05-25T07:37:53.481Z,10.00
2023-05-25T07:38:53.500Z,9.60
2023-05-25T07:39:53.463Z,9.60
2023-05-25T07:40:53.423Z,10.10
2023-05-25T07:41:53.430Z,10.20
2023-05-25T07:42:53.423Z,10.20
2023-05-25T07:43:53.390Z,10.00
2023-05-25T07:44:53.376Z,9.50
2023-05-25T07:45:53.363Z,8.80
2023-05-25T07:46:53.426Z,8.90
2023-05-25T07:47:53.388Z,8.90
2023-05-25T07:48:53.322Z,9.60
2023-05-25T07:49:53.316Z,9.60
2023-05-25T07:50:53.311Z,9.40
2023-05-25T07:51:53.284Z,9.50
2023-05-25T07:52:53.276Z,9.10
2023-05-25T07:53:53.246Z,9.40
2023-05-25T07:54:53.294Z,9.40
2023-05-25T07:55:53.224Z,9.20
2023-05-25T07:56:53.261Z,9.20
2023-05-25T07:57:53.180Z,8.70
2023-05-25T07:58:53.188Z,9.30
2023-05-25T07:59:53.165Z,8.10
2023-05-25T08:00:53.157Z,8.50
2023-05-25T08:01:53.207Z,8.30
2023-05-25T08:02:53.301Z,7.80
2023-05-25T08:03:53.200Z,7.80
2023-05-25T08:04:53.146Z,7.80
2023-05-25T08:05:53.083Z,8.20
2023-05-25T08:06:53.080Z,8.50
2023-05-25T08:07:53.074Z,8.00
2023-05-25T08:08:53.049Z,7.80
2023-05-25T08:09:53.049Z,8.00
2023-05-25T08:10:53.000Z,8.00
2023-05-25T08:11:55.998Z,8.10
2023-05-25T08:12:53.990Z,7.80
2023-05-25T08:13:53.002Z,8.30
2023-05-25T08:14:52.965Z,8.30
2023-05-25T08:15:52.945Z,7.90
2023-05-25T08:16:53.053Z,8.10
2023-05-25T08:17:52.957Z,8.10
2023-05-25T08:18:52.910Z,8.30
2023-05-25T08:19:52.944Z,7.20
2023-05-25T08:20:52.884Z,7.50
2023-05-25T08:21:52.882Z,8.30
2023-05-25T08:22:52.862Z,8.60
2023-05-25T08:23:52.841Z,7.60
2023-05-25T08:24:52.858Z,8.00
2023-05-25T08:25:52.837Z,7.20
2023-05-25T08:26:55.103Z,8.10
2023-05-25T08:27:52.803Z,8.00
2023-05-25T08:28:52.759Z,8.30
2023-05-25T08:29:52.799Z,7.70
2023-05-25T08:30:52.769Z,8.10
2023-05-25T08:31:52.740Z,7.60
2023-05-25T08:32:52.789Z,8.20
2023-05-25T08:33:52.707Z,8.30
2023-05-25T08:34:52.698Z,7.80
2023-05-25T08:35:52.684Z,7.70
2023-05-25T08:36:52.670Z,7.60
2023-05-25T08:37:52.664Z,7.70
2023-05-25T08:38:52.625Z,7.30
2023-05-25T08:39:52.639Z,7.90
2023-05-25T08:40:52.606Z,7.40
2023-05-25T08:41:52.605Z,7.00
2023-05-25T08:42:52.584Z,7.30
2023-05-25T08:43:52.581Z,7.50
2023-05-25T08:44:52.546Z,7.20
2023-05-25T08:45:52.652Z,8.30
2023-05-25T08:46:52.509Z,7.80
2023-05-25T08:47:52.596Z,7.10
2023-05-25T08:48:52.657Z,8.20
2023-05-25T08:49:52.558Z,7.50
2023-05-25T08:50:52.474Z,7.70
2023-05-25T08:51:52.449Z,7.30
2023-05-25T08:52:52.442Z,6.90
2023-05-25T08:53:52.437Z,7.60
2023-05-25T08:54:52.404Z,7.00
2023-05-25T08:55:52.403Z,7.00
2023-05-25T08:56:52.375Z,7.30
2023-05-25T08:57:52.375Z,7.20
2023-05-25T08:58:52.357Z,7.20
2023-05-25T08:59:52.383Z,7.00
2023-05-25T09:00:52.332Z,6.70
2023-05-25T09:01:52.428Z,6.40
2023-05-25T09:02:52.462Z,6.80
2023-05-25T09:03:52.350Z,7.00
2023-05-25T09:04:52.278Z,6.80
2023-05-25T09:05:52.265Z,6.30
2023-05-25T09:07:52.239Z,6.10
2023-05-25T09:08:52.213Z,5.80
2023-05-25T09:09:52.254Z,6.00
2023-05-25T09:10:52.201Z,5.90
2023-05-25T09:11:52.176Z,6.20
2023-05-25T09:12:52.161Z,6.70
2023-05-25T09:13:52.194Z,6.00
2023-05-25T09:14:52.193Z,6.30
2023-05-25T09:15:52.372Z,6.10
2023-05-25T09:16:52.167Z,6.90
2023-05-25T09:17:52.125Z,6.20
2023-05-25T09:18:52.116Z,6.00
2023-05-25T09:19:52.105Z,6.50
2023-05-25T09:20:52.542Z,6.20
2023-05-25T09:21:59.570Z,6.70
2023-05-25T09:22:53.111Z,6.60
2023-05-25T09:23:52.025Z,6.00
2023-05-25T09:24:51.997Z,6.00
2023-05-25T09:25:52.195Z,6.10
2023-05-25T09:26:51.975Z,5.90
2023-05-25T09:27:51.980Z,6.30
2023-05-25T09:28:51.964Z,6.30
2023-05-25T09:29:51.976Z,6.20
2023-05-25T09:30:51.951Z,5.90
2023-05-25T09:31:52.006Z,6.80
2023-05-25T09:32:51.943Z,6.30
2023-05-25T09:33:51.957Z,6.60
2023-05-25T09:34:51.908Z,6.80
2023-05-25T09:35:51.871Z,7.10
2023-05-25T09:36:52.029Z,6.90
2023-05-25T09:37:51.959Z,6.80
2023-05-25T09:38:52.037Z,6.90
2023-05-25T09:39:51.833Z,6.70
2023-05-25T09:40:51.801Z,6.70
2023-05-25T09:41:51.790Z,7.00
2023-05-25T09:42:51.788Z,6.60
2023-05-25T09:44:01.994Z,7.00
2023-05-25T09:44:52.770Z,6.60
2023-05-25T09:45:51.757Z,6.80
2023-05-25T09:46:51.738Z,6.60
2023-05-25T09:47:51.735Z,7.30
2023-05-25T09:48:51.706Z,7.60
2023-05-25T09:49:51.682Z,7.00
2023-05-25T09:50:51.862Z,7.80
2023-05-25T09:51:51.721Z,8.40
2023-05-25T09:52:51.653Z,8.80
2023-05-25T09:53:51.646Z,8.60
2023-05-25T09:54:51.623Z,9.30
2023-05-25T09:55:54.300Z,7.90
2023-05-25T09:56:51.720Z,7.90
2023-05-25T09:57:51.586Z,7.70
2023-05-25T09:58:51.556Z,8.10
2023-05-25T09:59:51.572Z,7.60
2023-05-25T10:00:51.549Z,7.90
2023-05-25T10:01:51.558Z,8.00
2023-05-25T10:02:51.583Z,8.30
2023-05-25T10:04:02.902Z,8.10
2023-05-25T10:04:52.482Z,8.00
2023-05-25T10:05:51.466Z,7.70
2023-05-25T10:06:51.453Z,7.90
2023-05-25T10:07:51.468Z,8.00
2023-05-25T10:08:51.407Z,8.00
2023-05-25T10:09:51.402Z,8.40
2023-05-25T10:10:51.390Z,8.00
2023-05-25T10:11:51.392Z,8.50
2023-05-25T10:12:51.363Z,8.50
2023-05-25T10:13:51.353Z,8.10
2023-05-25T10:14:51.345Z,8.40
2023-05-25T10:15:51.339Z,8.90
2023-05-25T10:16:51.321Z,8.80
2023-05-25T10:17:51.349Z,8.50
2023-05-25T10:18:51.283Z,8.60
2023-05-25T10:19:51.315Z,8.30
2023-05-25T10:20:51.341Z,8.10
2023-05-25T10:21:51.307Z,8.10
2023-05-25T10:22:51.222Z,8.40
2023-05-25T10:23:51.236Z,8.80
2023-05-25T10:24:51.210Z,8.50
2023-05-25T10:25:51.191Z,8.90
2023-05-25T10:26:51.177Z,8.10
2023-05-25T10:27:52.277Z,8.60
2023-05-25T10:28:51.157Z,9.30
2023-05-25T10:29:51.141Z,8.80
2023-05-25T10:30:51.124Z,8.80
2023-05-25T10:31:51.119Z,8.30
2023-05-25T10:32:51.125Z,8.30
2023-05-25T10:33:52.505Z,8.50
2023-05-25T10:34:51.061Z,8.40
2023-05-25T10:36:03.021Z,8.60
2023-05-25T10:36:52.036Z,9.20
2023-05-25T10:37:51.041Z,8.80
2023-05-25T10:38:51.020Z,8.00
2023-05-25T10:39:51.016Z,8.00
2023-05-25T10:40:50.982Z,7.00
2023-05-25T10:41:50.967Z,7.00
2023-05-25T10:42:50.965Z,7.70
2023-05-25T10:43:50.965Z,6.70
2023-05-25T10:44:50.942Z,7.00
2023-05-25T10:45:50.907Z,7.30
2023-05-25T10:46:50.993Z,7.10
2023-05-25T10:47:50.930Z,7.20
2023-05-25T10:48:50.878Z,7.70
2023-05-25T10:49:50.866Z,7.10
2023-05-25T10:50:50.846Z,7.00
2023-05-25T10:51:50.830Z,7.30
2023-05-25T10:52:50.826Z,6.50
2023-05-25T10:53:50.822Z,6.40
2023-05-25T10:54:50.805Z,5.90
2023-05-25T10:55:50.777Z,5.80
2023-05-25T10:56:50.751Z,6.20
2023-05-25T10:57:50.763Z,5.90
2023-05-25T10:58:50.747Z,6.20
2023-05-25T10:59:50.728Z,7.10
2023-05-25T11:00:50.775Z,6.70
2023-05-25T11:01:50.728Z,6.80
2023-05-25T11:02:50.763Z,6.70
2023-05-25T11:03:50.709Z,6.40
2023-05-25T11:04:50.652Z,5.80
2023-05-25T11:05:50.648Z,6.60
2023-05-25T11:06:51.372Z,6.10
2023-05-25T11:07:50.623Z,7.00
2023-05-25T11:08:50.654Z,6.30
2023-05-25T11:09:50.609Z,5.90
2023-05-25T11:10:50.558Z,6.70
2023-05-25T11:11:50.581Z,6.30
2023-05-25T11:12:50.555Z,6.60
2023-05-25T11:13:50.531Z,7.20
2023-05-25T11:14:50.514Z,7.00
2023-05-25T11:15:50.688Z,6.60
2023-05-25T11:16:50.553Z,6.50
2023-05-25T11:17:50.531Z,6.20
2023-05-25T11:18:50.468Z,6.50
2023-05-25T11:19:51.384Z,7.60
2023-05-25T11:20:50.477Z,6.90
2023-05-25T11:21:50.424Z,7.90
2023-05-25T11:22:52.411Z,7.90
2023-05-25T11:23:50.399Z,8.40
2023-05-25T11:24:50.387Z,8.00
2023-05-25T11:25:50.368Z,7.90
2023-05-25T11:26:50.364Z,8.00
2023-05-25T11:27:50.348Z,8.30
2023-05-25T11:28:50.331Z,8.10
2023-05-25T11:29:50.306Z,8.80
2023-05-25T11:30:50.353Z,8.30
2023-05-25T11:31:50.358Z,8.70
2023-05-25T11:32:50.338Z,8.90
2023-05-25T11:33:50.251Z,7.90
2023-05-25T11:34:50.241Z,8.10
2023-05-25T11:35:50.239Z,7.60
2023-05-25T11:36:50.210Z,7.60
2023-05-25T11:37:50.199Z,8.50
2023-05-25T11:39:02.475Z,7.40
2023-05-25T11:39:51.171Z,7.90
2023-05-25T11:40:50.410Z,7.70
2023-05-25T11:41:50.202Z,7.80
2023-05-25T11:42:50.135Z,7.80
2023-05-25T11:43:50.112Z,7.00
2023-05-25T11:44:50.112Z,6.90
2023-05-25T11:45:50.123Z,6.60
2023-05-25T11:46:50.104Z,6.50
2023-05-25T11:47:50.094Z,6.10
2023-05-25T11:48:50.042Z,6.80
2023-05-25T11:49:50.069Z,6.50
2023-05-25T11:50:50.023Z,7.20
2023-05-25T11:51:50.015Z,6.80
2023-05-25T11:52:49.997Z,7.00
2023-05-25T11:53:50.005Z,6.50
2023-05-25T11:54:49.979Z,6.50
2023-05-25T11:55:52.187Z,6.30
2023-05-25T11:56:50.964Z,7.00
2023-05-25T11:57:49.945Z,6.70
2023-05-25T11:58:49.907Z,6.30
2023-05-25T11:59:49.922Z,6.20
2023-05-25T12:00:49.886Z,5.70
2023-05-25T12:01:49.877Z,5.20
2023-05-25T12:02:49.973Z,5.50
2023-05-25T12:03:49.925Z,5.50
2023-05-25T12:04:49.880Z,5.20
2023-05-25T12:05:49.847Z,5.20
2023-05-25T12:06:49.818Z,4.50
2023-05-25T12:07:49.814Z,4.90
2023-05-25T12:08:49.800Z,5.60
2023-05-25T12:09:49.776Z,5.10
2023-05-25T12:10:50.085Z,5.10
2023-05-25T12:11:49.767Z,5.30
2023-05-25T12:12:49.761Z,5.50
2023-05-25T12:13:49.714Z,5.60
2023-05-25T12:14:49.707Z,5.30
2023-05-25T12:15:49.751Z,4.70
2023-05-25T12:16:49.745Z,5.80
2023-05-25T12:17:49.763Z,5.00
2023-05-25T12:18:49.657Z,4.90
2023-05-25T12:19:49.642Z,4.90
2023-05-25T12:20:49.779Z,4.90
2023-05-25T12:21:49.644Z,4.80
2023-05-25T12:22:49.724Z,5.00
2023-05-25T12:23:49.574Z,5.70
2023-05-25T12:24:49.585Z,5.00
2023-05-25T12:25:50.929Z,5.00
2023-05-25T12:26:49.562Z,4.90
2023-05-25T12:27:49.540Z,5.00
2023-05-25T12:28:49.515Z,5.20
2023-05-25T12:29:49.494Z,5.20
2023-05-25T12:30:49.501Z,5.50
2023-05-25T12:31:49.514Z,5.10
2023-05-25T12:32:49.507Z,5.00
2023-05-25T12:33:49.446Z,5.30
2023-05-25T12:34:49.461Z,5.20
2023-05-25T12:35:49.506Z,5.50
2023-05-25T12:36:49.413Z,5.70
2023-05-25T12:37:49.426Z,5.20
2023-05-25T12:38:49.380Z,5.20
2023-05-25T12:39:49.548Z,5.00
2023-05-25T12:40:49.359Z,5.80
2023-05-25T12:41:50.637Z,5.60
2023-05-25T12:42:49.346Z,6.10
2023-05-25T12:43:49.329Z,5.40
2023-05-25T12:44:49.337Z,5.50
2023-05-25T12:45:49.281Z,5.30
2023-05-25T12:46:49.296Z,5.40
2023-05-25T12:47:49.274Z,6.30
2023-05-25T12:48:49.267Z,5.40
2023-05-25T12:49:49.252Z,6.80
2023-05-25T12:50:49.699Z,5.90
2023-05-25T12:51:49.210Z,5.80
2023-05-25T12:52:49.208Z,6.50
2023-05-25T12:53:49.190Z,6.80
2023-05-25T12:54:49.186Z,6.30
2023-05-25T12:55:49.142Z,6.90
2023-05-25T12:56:49.172Z,7.00
2023-05-25T12:57:49.114Z,7.00
2023-05-25T12:58:49.147Z,7.10
2023-05-25T12:59:49.103Z,6.80
2023-05-25T13:00:49.089Z,6.80
2023-05-25T13:01:49.093Z,7.00
2023-05-25T13:02:50.579Z,6.20
2023-05-25T13:03:49.057Z,6.40
2023-05-25T13:04:49.063Z,6.60